createdAt,value
2018-05-16T00:00:14.873Z,0.00
2018-05-16T00:02:07.710Z,0.00
2018-05-16T00:03:07.649Z,0.00
2018-05-16T00:05:00.650Z,0.00
2018-05-16T00:06:00.716Z,0.00
2018-05-16T00:07:53.443Z,0.00
2018-05-16T00:08:53.395Z,0.00
2018-05-16T00:10:46.225Z,0.00
2018-05-16T00:11:46.204Z,0.00
2018-05-16T00:13:39.146Z,0.00
2018-05-16T00:14:38.989Z,0.00
2018-05-16T00:16:31.990Z,0.00
2018-05-16T00:17:31.912Z,0.00
2018-05-16T00:19:24.915Z,0.00
2018-05-16T00:20:24.861Z,0.00
2018-05-16T00:22:17.734Z,0.00
2018-05-16T00:23:17.677Z,0.00
2018-05-16T00:25:10.660Z,0.00
2018-05-16T00:26:10.655Z,0.00
2018-05-16T00:28:03.606Z,0.00
2018-05-16T00:29:03.564Z,0.00
2018-05-16T00:30:56.792Z,0.00
2018-05-16T00:31:56.751Z,0.00
2018-05-16T00:33:49.740Z,0.00
2018-05-16T00:34:49.695Z,0.00
2018-05-16T00:36:42.502Z,0.00
2018-05-16T00:37:42.490Z,0.00
2018-05-16T00:39:35.296Z,0.00
2018-05-16T00:40:35.254Z,0.00
2018-05-16T00:42:28.131Z,0.00
2018-05-16T00:43:28.080Z,0.00
2018-05-16T00:45:20.982Z,0.00
2018-05-16T00:46:20.865Z,0.00
2018-05-16T00:48:13.861Z,0.00
2018-05-16T00:49:14.004Z,0.00
2018-05-16T00:51:07.080Z,0.00
2018-05-16T00:52:07.020Z,0.00
2018-05-16T00:53:59.992Z,0.00
2018-05-16T00:54:59.961Z,0.00
2018-05-16T00:56:52.950Z,0.00
2018-05-16T00:57:52.897Z,0.00
2018-05-16T00:59:45.752Z,0.00
2018-05-16T01:00:45.699Z,0.00
2018-05-16T01:02:38.708Z,0.00
2018-05-16T01:03:38.659Z,0.00
2018-05-16T01:05:31.700Z,0.00
2018-05-16T01:06:31.718Z,0.00
2018-05-16T01:08:24.899Z,0.00
2018-05-16T01:09:24.765Z,0.00
2018-05-16T01:11:17.782Z,0.00
2018-05-16T01:12:17.728Z,0.00
2018-05-16T01:14:10.758Z,0.00
2018-05-16T01:15:10.708Z,0.00
2018-05-16T01:17:03.532Z,0.00
2018-05-16T01:18:03.486Z,0.00
2018-05-16T01:19:56.500Z,0.00
2018-05-16T01:20:56.420Z,0.00
2018-05-16T01:22:49.232Z,0.00
2018-05-16T01:23:49.200Z,0.00
2018-05-16T01:25:42.046Z,0.00
2018-05-16T01:26:42.037Z,0.00
2018-05-16T01:28:35.263Z,0.00
2018-05-16T01:29:35.138Z,0.00
2018-05-16T01:31:28.101Z,0.00
2018-05-16T01:32:28.058Z,0.00
2018-05-16T01:34:21.076Z,0.00
2018-05-16T01:35:21.017Z,0.00
2018-05-16T01:37:14.098Z,0.00
2018-05-16T01:38:13.887Z,0.00
2018-05-16T01:40:07.020Z,0.00
2018-05-16T01:41:06.830Z,0.00
2018-05-16T01:42:59.823Z,0.00
2018-05-16T01:43:59.799Z,0.00
2018-05-16T01:45:52.646Z,0.00
2018-05-16T01:46:52.589Z,0.00
2018-05-16T01:48:45.525Z,0.00
2018-05-16T01:49:45.405Z,0.00
2018-05-16T01:51:38.227Z,0.00
2018-05-16T01:52:38.178Z,0.00
2018-05-16T01:54:31.168Z,0.00
2018-05-16T01:55:31.121Z,0.00
2018-05-16T01:57:24.292Z,0.00
2018-05-16T01:58:24.211Z,0.00
2018-05-16T02:00:17.384Z,0.00
2018-05-16T02:01:17.452Z,0.00
2018-05-16T02:03:10.161Z,0.00
2018-05-16T02:04:10.111Z,0.00
2018-05-16T02:06:03.304Z,0.00
2018-05-16T02:07:03.261Z,0.00
2018-05-16T02:08:56.225Z,0.00
2018-05-16T02:09:56.206Z,0.00
2018-05-16T02:11:49.541Z,0.00
2018-05-16T02:12:49.356Z,0.00
2018-05-16T02:14:42.344Z,0.00
2018-05-16T02:15:42.317Z,0.00
2018-05-16T02:17:35.140Z,0.00
2018-05-16T02:18:35.081Z,0.00
2018-05-16T02:20:27.899Z,0.00
2018-05-16T02:21:27.863Z,0.00
2018-05-16T02:23:20.981Z,0.00
2018-05-16T02:24:20.844Z,0.00
2018-05-16T02:26:13.653Z,0.00
2018-05-16T02:27:13.552Z,0.00
2018-05-16T02:29:06.526Z,0.00
2018-05-16T02:30:06.496Z,0.00
2018-05-16T02:31:59.468Z,0.00
2018-05-16T02:32:59.432Z,0.00
2018-05-16T02:34:52.373Z,0.00
2018-05-16T02:35:52.277Z,0.00
2018-05-16T02:37:45.278Z,0.00
2018-05-16T02:38:45.230Z,0.00
2018-05-16T02:40:38.513Z,0.00
2018-05-16T02:41:38.173Z,0.00
2018-05-16T02:43:31.367Z,0.00
2018-05-16T02:44:31.279Z,0.00
2018-05-16T02:46:24.239Z,0.00
2018-05-16T02:47:24.206Z,0.00
2018-05-16T02:49:17.564Z,0.00
2018-05-16T02:50:17.374Z,0.00
2018-05-16T02:52:10.391Z,0.00
2018-05-16T02:53:10.341Z,0.00
2018-05-16T02:55:03.351Z,0.00
2018-05-16T02:56:03.314Z,0.00
2018-05-16T02:57:56.245Z,0.00
2018-05-16T02:58:56.190Z,0.00
2018-05-16T03:00:49.171Z,0.00
2018-05-16T03:01:49.144Z,0.00
2018-05-16T03:03:42.147Z,0.00
2018-05-16T03:04:42.148Z,0.00
2018-05-16T03:06:35.303Z,0.00
2018-05-16T03:07:35.238Z,0.00
2018-05-16T03:09:28.219Z,0.00
2018-05-16T03:10:28.328Z,0.00
2018-05-16T03:12:21.467Z,0.00
2018-05-16T03:13:21.349Z,0.00
2018-05-16T03:15:14.180Z,0.00
2018-05-16T03:16:14.137Z,0.00
2018-05-16T03:18:07.128Z,0.00
2018-05-16T03:19:07.177Z,0.00
2018-05-16T03:21:00.312Z,0.00
2018-05-16T03:22:00.241Z,0.00
2018-05-16T03:23:53.213Z,4.00
2018-05-16T03:24:53.174Z,0.00
2018-05-16T03:26:46.172Z,4.00
2018-05-16T03:27:46.118Z,4.00
2018-05-16T03:29:39.220Z,4.00
2018-05-16T03:30:38.975Z,4.00
2018-05-16T03:32:31.994Z,4.00
2018-05-16T03:33:31.923Z,4.00
2018-05-16T03:35:24.778Z,12.00
2018-05-16T03:36:24.715Z,12.00
2018-05-16T03:38:17.694Z,16.00
2018-05-16T03:39:17.653Z,12.00
2018-05-16T03:41:10.708Z,20.00
2018-05-16T03:42:10.633Z,20.00
2018-05-16T03:44:03.639Z,28.00
2018-05-16T03:45:03.593Z,28.00
2018-05-16T03:46:56.730Z,36.00
2018-05-16T03:47:56.693Z,40.00
2018-05-16T03:49:49.682Z,44.00
2018-05-16T03:50:49.643Z,40.00
2018-05-16T03:52:42.644Z,48.00
2018-05-16T03:53:42.592Z,48.00
2018-05-16T03:55:35.807Z,60.00
2018-05-16T03:56:35.741Z,64.00
2018-05-16T03:58:28.764Z,76.00
2018-05-16T03:59:28.703Z,84.00
2018-05-16T04:01:22.003Z,96.00
2018-05-16T04:02:21.961Z,100.00
2018-05-16T04:04:14.669Z,116.00
2018-05-16T04:05:14.640Z,124.00
2018-05-16T04:07:07.645Z,140.00
2018-05-16T04:08:07.590Z,152.00
2018-05-16T04:10:00.824Z,176.00
2018-05-16T04:11:00.718Z,180.00
2018-05-16T04:12:53.698Z,196.00
2018-05-16T04:13:53.645Z,200.00
2018-05-16T04:15:46.669Z,216.00
2018-05-16T04:16:46.624Z,224.00
2018-05-16T04:18:39.743Z,236.00
2018-05-16T04:19:39.690Z,240.00
2018-05-16T04:21:32.671Z,264.00
2018-05-16T04:22:32.714Z,280.00
2018-05-16T04:24:25.492Z,292.00
2018-05-16T04:25:25.408Z,296.00
2018-05-16T04:27:18.643Z,316.00
2018-05-16T04:28:18.544Z,324.00
2018-05-16T04:30:11.537Z,328.00
2018-05-16T04:31:11.573Z,340.00
2018-05-16T04:33:04.734Z,380.00
2018-05-16T04:34:04.601Z,408.00
2018-05-16T04:35:57.428Z,436.00
2018-05-16T04:36:57.380Z,464.00
2018-05-16T04:38:50.383Z,492.00
2018-05-16T04:39:50.379Z,508.00
2018-05-16T04:41:43.304Z,576.00
2018-05-16T04:42:43.249Z,596.00
2018-05-16T04:44:36.341Z,620.00
2018-05-16T04:45:36.107Z,636.00
2018-05-16T04:47:29.078Z,620.00
2018-05-16T04:48:29.066Z,620.00
2018-05-16T04:50:22.049Z,632.00
2018-05-16T04:51:22.026Z,636.00
2018-05-16T04:53:14.821Z,696.00
2018-05-16T04:54:14.770Z,732.00
2018-05-16T04:56:07.779Z,756.00
2018-05-16T04:57:07.589Z,752.00
2018-05-16T04:59:00.654Z,784.00
2018-05-16T05:00:00.595Z,820.00
2018-05-16T05:01:53.559Z,792.00
2018-05-16T05:02:53.535Z,816.00
2018-05-16T05:04:46.451Z,1056.00
2018-05-16T05:05:46.385Z,1160.00
2018-05-16T05:07:39.298Z,1296.00
2018-05-16T05:08:39.190Z,1384.00
2018-05-16T05:10:31.995Z,1452.00
2018-05-16T05:11:31.945Z,1460.00
2018-05-16T05:13:24.929Z,1544.00
2018-05-16T05:14:24.903Z,1532.00
2018-05-16T05:16:17.730Z,1516.00
2018-05-16T05:17:17.681Z,1496.00
2018-05-16T05:19:10.738Z,1484.00
2018-05-16T05:20:10.501Z,1452.00
2018-05-16T05:22:03.599Z,1424.00
2018-05-16T05:23:03.531Z,1440.00
2018-05-16T05:24:56.511Z,1472.00
2018-05-16T05:25:56.471Z,1472.00
2018-05-16T05:27:49.557Z,1500.00
2018-05-16T05:28:49.397Z,1508.00
2018-05-16T05:30:42.385Z,1544.00
2018-05-16T05:31:42.342Z,1544.00
2018-05-16T05:33:35.299Z,1532.00
2018-05-16T05:34:35.347Z,1532.00
2018-05-16T05:36:28.469Z,1604.00
2018-05-16T05:37:28.377Z,1648.00
2018-05-16T05:39:21.355Z,2060.00
2018-05-16T05:40:21.313Z,2252.00
2018-05-16T05:42:14.322Z,2152.00
2018-05-16T05:43:14.306Z,1980.00
2018-05-16T05:45:07.313Z,1820.00
2018-05-16T05:46:07.076Z,1792.00
2018-05-16T05:48:00.116Z,1816.00
2018-05-16T05:49:00.089Z,1824.00
2018-05-16T05:50:53.075Z,2084.00
2018-05-16T05:51:53.011Z,2140.00
2018-05-16T05:53:45.845Z,2036.00
2018-05-16T05:54:45.811Z,1976.00
2018-05-16T05:56:38.798Z,2020.00
2018-05-16T05:57:38.621Z,2032.00
2018-05-16T05:59:31.610Z,1952.00
2018-05-16T06:00:31.556Z,1924.00
2018-05-16T06:02:24.540Z,1916.00
2018-05-16T06:03:24.492Z,1920.00
2018-05-16T06:05:17.308Z,1940.00
2018-05-16T06:06:17.271Z,1948.00
2018-05-16T06:08:10.308Z,1964.00
2018-05-16T06:09:10.258Z,1980.00
2018-05-16T06:11:03.111Z,2000.00
2018-05-16T06:12:03.043Z,2008.00
2018-05-16T06:13:56.037Z,2016.00
2018-05-16T06:14:55.996Z,2020.00
2018-05-16T06:16:49.097Z,2024.00
2018-05-16T06:17:48.933Z,2028.00
2018-05-16T06:19:41.956Z,2012.00
2018-05-16T06:20:41.867Z,1996.00
2018-05-16T06:22:34.856Z,1988.00
2018-05-16T06:23:34.810Z,1988.00
2018-05-16T06:25:27.893Z,1984.00
2018-05-16T06:26:27.738Z,1980.00
2018-05-16T06:28:20.801Z,1980.00
2018-05-16T06:29:20.741Z,1976.00
2018-05-16T06:31:13.753Z,1976.00
2018-05-16T06:32:13.730Z,1972.00
2018-05-16T06:34:06.931Z,1968.00
2018-05-16T06:35:06.858Z,1956.00
2018-05-16T06:36:59.840Z,1948.00
2018-05-16T06:37:59.798Z,1948.00
2018-05-16T06:39:52.637Z,1948.00
2018-05-16T06:40:52.582Z,1952.00
2018-05-16T06:42:45.417Z,1972.00
2018-05-16T06:43:45.365Z,1980.00
2018-05-16T06:45:38.354Z,2008.00
2018-05-16T06:46:38.156Z,2004.00
2018-05-16T06:48:31.170Z,2008.00
2018-05-16T06:49:31.111Z,2020.00
2018-05-16T06:51:23.931Z,2028.00
2018-05-16T06:52:23.898Z,2040.00
2018-05-16T06:54:17.162Z,2048.00
2018-05-16T06:55:17.060Z,2052.00
2018-05-16T06:57:10.056Z,2076.00
2018-05-16T06:58:10.008Z,2060.00
2018-05-16T07:00:03.035Z,2084.00
2018-05-16T07:01:03.000Z,2092.00
2018-05-16T07:02:55.973Z,2092.00
2018-05-16T07:03:55.916Z,2088.00
2018-05-16T07:05:48.834Z,2116.00
2018-05-16T07:06:48.797Z,2132.00
2018-05-16T07:08:41.783Z,2136.00
2018-05-16T07:09:41.767Z,2144.00
2018-05-16T07:11:34.889Z,2180.00
2018-05-16T07:12:34.823Z,2208.00
2018-05-16T07:14:27.821Z,2244.00
2018-05-16T07:15:27.813Z,2252.00
2018-05-16T07:17:20.958Z,2256.00
2018-05-16T07:18:20.927Z,2300.00
2018-05-16T07:20:13.943Z,2372.00
2018-05-16T07:21:13.899Z,2400.00
2018-05-16T07:23:06.863Z,2428.00
2018-05-16T07:24:06.834Z,2448.00
2018-05-16T07:26:00.000Z,2500.00
2018-05-16T07:26:59.783Z,2528.00
2018-05-16T07:28:52.613Z,2568.00
2018-05-16T07:29:52.557Z,2564.00
2018-05-16T07:31:45.527Z,2560.00
2018-05-16T07:32:45.506Z,2560.00
2018-05-16T07:34:38.818Z,2584.00
2018-05-16T07:35:38.634Z,2596.00
2018-05-16T07:37:31.632Z,2636.00
2018-05-16T07:38:31.596Z,2656.00
2018-05-16T07:40:24.564Z,2720.00
2018-05-16T07:41:24.527Z,2756.00
2018-05-16T07:43:17.728Z,2824.00
2018-05-16T07:44:17.438Z,2884.00
2018-05-16T07:46:10.336Z,3036.00
2018-05-16T07:47:10.229Z,3188.00
2018-05-16T07:49:03.251Z,3252.00
2018-05-16T07:50:03.342Z,3180.00
2018-05-16T07:51:56.553Z,3084.00
2018-05-16T07:52:56.328Z,3152.00
2018-05-16T07:54:49.236Z,3308.00
2018-05-16T07:55:49.112Z,3284.00
2018-05-16T07:57:42.134Z,3208.00
2018-05-16T07:58:42.083Z,3324.00
2018-05-16T08:00:35.120Z,3784.00
2018-05-16T08:01:35.102Z,3820.00
2018-05-16T08:03:28.106Z,3900.00
2018-05-16T08:04:28.057Z,3748.00
2018-05-16T08:06:20.895Z,3840.00
2018-05-16T08:07:20.838Z,3840.00
2018-05-16T08:09:14.246Z,3752.00
2018-05-16T08:10:14.129Z,3848.00
2018-05-16T08:12:07.142Z,3700.00
2018-05-16T08:13:07.089Z,3672.00
2018-05-16T08:15:00.504Z,3740.00
2018-05-16T08:16:00.451Z,3788.00
2018-05-16T08:17:53.468Z,3676.00
2018-05-16T08:18:53.409Z,3920.00
2018-05-16T08:20:46.595Z,4344.00
2018-05-16T08:21:46.603Z,4616.00
2018-05-16T08:23:39.397Z,5416.00
2018-05-16T08:24:39.343Z,5828.00
2018-05-16T08:26:32.382Z,6328.00
2018-05-16T08:27:32.322Z,6416.00
2018-05-16T08:29:25.504Z,5976.00
2018-05-16T08:30:25.458Z,6028.00
2018-05-16T08:32:18.459Z,5984.00
2018-05-16T08:33:18.416Z,6456.00
2018-05-16T08:35:11.391Z,5644.00
2018-05-16T08:36:11.363Z,5080.00
2018-05-16T08:38:04.294Z,4480.00
2018-05-16T08:39:04.250Z,4444.00
2018-05-16T08:40:57.260Z,5148.00
2018-05-16T08:41:57.295Z,5740.00
2018-05-16T08:43:50.271Z,5716.00
2018-05-16T08:44:50.219Z,6252.00
2018-05-16T08:46:43.051Z,6440.00
2018-05-16T08:47:43.019Z,6580.00
2018-05-16T08:49:36.016Z,5908.00
2018-05-16T08:50:35.975Z,6288.00
2018-05-16T08:52:28.945Z,7420.00
2018-05-16T08:53:28.998Z,7552.00
2018-05-16T08:55:21.743Z,8128.00
2018-05-16T08:56:21.705Z,8388.00
2018-05-16T08:58:14.739Z,8792.00
2018-05-16T08:59:14.497Z,8808.00
2018-05-16T09:01:07.725Z,9684.00
2018-05-16T09:02:07.606Z,9548.00
2018-05-16T09:04:01.050Z,8704.00
2018-05-16T09:05:00.783Z,8820.00
2018-05-16T09:06:53.809Z,8028.00
2018-05-16T09:07:53.784Z,7532.00
2018-05-16T09:09:46.830Z,6820.00
2018-05-16T09:10:46.760Z,6372.00
2018-05-16T09:12:39.609Z,6556.00
2018-05-16T09:13:39.579Z,6484.00
2018-05-16T09:15:32.596Z,7160.00
2018-05-16T09:16:32.560Z,7636.00
2018-05-16T09:18:25.536Z,8028.00
2018-05-16T09:19:25.520Z,8740.00
2018-05-16T09:21:18.731Z,10220.00
2018-05-16T09:22:18.688Z,11904.00
2018-05-16T09:24:11.696Z,12160.00
2018-05-16T09:25:11.804Z,11952.00
2018-05-16T09:27:04.924Z,11608.00
2018-05-16T09:28:04.789Z,10228.00
2018-05-16T09:29:57.822Z,10952.00
2018-05-16T09:30:57.770Z,10588.00
2018-05-16T09:32:50.761Z,8328.00
2018-05-16T09:33:50.732Z,8692.00
2018-05-16T09:35:43.787Z,8868.00
2018-05-16T09:36:43.571Z,7092.00
2018-05-16T09:38:36.688Z,8652.00
2018-05-16T09:39:36.657Z,9808.00
2018-05-16T09:41:29.649Z,7072.00
2018-05-16T09:42:29.595Z,6628.00
2018-05-16T09:44:22.666Z,8840.00
2018-05-16T09:45:22.599Z,7844.00
2018-05-16T09:47:15.600Z,9892.00
2018-05-16T09:48:15.540Z,10820.00
2018-05-16T09:50:08.811Z,12420.00
2018-05-16T09:51:08.682Z,14156.00
2018-05-16T09:53:01.689Z,44736.00
2018-05-16T09:54:01.636Z,60352.00
2018-05-16T09:55:54.659Z,65504.00
2018-05-16T09:56:54.623Z,46880.00
2018-05-16T09:58:47.431Z,7944.00
2018-05-16T09:59:47.406Z,17920.00
2018-05-16T10:01:40.423Z,22144.00
2018-05-16T10:02:40.402Z,33888.00
2018-05-16T10:04:33.412Z,54496.00
2018-05-16T10:05:33.385Z,15676.00
2018-05-16T10:07:26.615Z,9624.00
2018-05-16T10:08:26.545Z,8060.00
2018-05-16T10:10:19.532Z,25600.00
2018-05-16T10:11:19.612Z,9020.00
2018-05-16T10:13:12.851Z,5780.00
2018-05-16T10:14:12.705Z,24000.00
2018-05-16T10:16:05.561Z,27552.00
2018-05-16T10:17:05.617Z,28064.00
2018-05-16T10:18:58.463Z,11736.00
2018-05-16T10:19:58.496Z,11472.00
2018-05-16T10:21:51.852Z,22400.00
2018-05-16T10:22:51.785Z,9412.00
2018-05-16T10:24:44.625Z,9368.00
2018-05-16T10:25:44.732Z,12140.00
2018-05-16T10:27:37.899Z,11992.00
2018-05-16T10:28:37.751Z,10844.00
2018-05-16T10:30:30.573Z,12388.00
2018-05-16T10:31:30.568Z,13852.00
2018-05-16T10:33:23.586Z,11412.00
2018-05-16T10:34:23.589Z,11636.00
2018-05-16T10:36:16.354Z,10468.00
2018-05-16T10:37:16.307Z,9112.00
2018-05-16T10:39:09.151Z,8292.00
2018-05-16T10:40:09.106Z,7876.00
2018-05-16T10:42:02.112Z,6328.00
2018-05-16T10:43:02.082Z,5416.00
2018-05-16T10:44:55.102Z,4692.00
2018-05-16T10:45:55.097Z,4576.00
2018-05-16T10:47:48.270Z,4016.00
2018-05-16T10:48:48.213Z,3844.00
2018-05-16T10:50:41.207Z,3552.00
2018-05-16T10:51:41.251Z,3416.00
2018-05-16T10:53:34.514Z,3008.00
2018-05-16T10:54:34.329Z,2864.00
2018-05-16T10:56:27.272Z,2740.00
2018-05-16T10:57:27.339Z,2840.00
2018-05-16T10:59:20.099Z,3408.00
2018-05-16T11:00:20.103Z,4144.00
2018-05-16T11:02:13.302Z,5180.00
2018-05-16T11:03:13.232Z,5520.00
2018-05-16T11:05:06.240Z,6204.00
2018-05-16T11:06:06.191Z,5640.00
2018-05-16T11:07:59.190Z,4336.00
2018-05-16T11:08:59.133Z,3832.00
2018-05-16T11:10:52.193Z,3356.00
2018-05-16T11:11:52.177Z,3224.00
2018-05-16T11:13:45.172Z,3092.00
2018-05-16T11:14:45.193Z,2772.00
2018-05-16T11:16:38.133Z,2564.00
2018-05-16T11:17:38.098Z,2776.00
2018-05-16T11:19:31.118Z,3680.00
2018-05-16T11:20:31.087Z,4436.00
2018-05-16T11:22:24.064Z,5216.00
2018-05-16T11:23:24.024Z,5196.00
2018-05-16T11:25:17.300Z,5100.00
2018-05-16T11:26:17.178Z,5196.00
2018-05-16T11:28:10.183Z,5552.00
2018-05-16T11:29:10.274Z,6928.00
2018-05-16T11:31:03.138Z,6892.00
2018-05-16T11:32:03.089Z,6336.00
2018-05-16T11:33:56.132Z,6548.00
2018-05-16T11:34:55.896Z,5908.00
2018-05-16T11:36:48.888Z,6492.00
2018-05-16T11:37:48.863Z,7912.00
2018-05-16T11:39:41.905Z,11464.00
2018-05-16T11:40:41.862Z,10068.00
2018-05-16T11:42:34.713Z,11208.00
2018-05-16T11:43:34.667Z,11520.00
2018-05-16T11:45:27.673Z,12224.00
2018-05-16T11:46:27.658Z,12840.00
2018-05-16T11:48:20.603Z,9696.00
2018-05-16T11:49:20.567Z,8892.00
2018-05-16T11:51:13.807Z,8044.00
2018-05-16T11:52:13.724Z,8332.00
2018-05-16T11:54:06.738Z,9016.00
2018-05-16T11:55:06.801Z,9076.00
2018-05-16T11:57:00.093Z,8620.00
2018-05-16T11:57:59.986Z,8084.00
2018-05-16T11:59:53.025Z,6548.00
2018-05-16T12:00:52.942Z,5880.00
2018-05-16T12:02:46.347Z,4596.00
2018-05-16T12:03:46.158Z,4208.00
2018-05-16T12:05:39.019Z,4148.00
2018-05-16T12:06:38.943Z,4328.00
2018-05-16T12:08:31.924Z,4976.00
2018-05-16T12:09:31.974Z,5460.00
2018-05-16T12:11:25.153Z,5268.00
2018-05-16T12:12:25.038Z,4864.00
2018-05-16T12:14:18.056Z,5300.00
2018-05-16T12:15:18.037Z,5912.00
2018-05-16T12:17:11.013Z,6940.00
2018-05-16T12:18:10.960Z,7416.00
2018-05-16T12:20:03.999Z,7308.00
2018-05-16T12:21:03.951Z,6800.00
2018-05-16T12:22:56.797Z,6304.00
2018-05-16T12:23:56.758Z,6768.00
2018-05-16T12:25:49.565Z,7104.00
2018-05-16T12:26:49.559Z,7196.00
2018-05-16T12:28:42.893Z,8444.00
2018-05-16T12:29:42.673Z,9200.00
2018-05-16T12:31:35.693Z,9984.00
2018-05-16T12:32:35.638Z,9492.00
2018-05-16T12:34:28.629Z,8552.00
2018-05-16T12:35:28.595Z,9096.00
2018-05-16T12:37:21.643Z,10164.00
2018-05-16T12:38:21.475Z,11176.00
2018-05-16T12:40:14.446Z,9772.00
2018-05-16T12:41:14.439Z,10112.00
2018-05-16T12:43:07.432Z,8036.00
2018-05-16T12:44:07.371Z,6496.00
2018-05-16T12:46:00.205Z,5148.00
2018-05-16T12:47:00.190Z,4364.00
2018-05-16T12:48:53.197Z,3444.00
2018-05-16T12:49:52.984Z,3184.00
2018-05-16T12:51:46.142Z,3044.00
2018-05-16T12:52:46.125Z,2936.00
2018-05-16T12:54:39.392Z,2796.00
2018-05-16T12:55:39.308Z,3136.00
2018-05-16T12:57:32.212Z,3548.00
2018-05-16T12:58:32.182Z,3564.00
2018-05-16T13:00:25.200Z,3780.00
2018-05-16T13:01:25.233Z,4076.00
2018-05-16T13:03:17.978Z,4596.00
2018-05-16T13:04:17.925Z,5468.00
2018-05-16T13:06:10.812Z,6232.00
2018-05-16T13:07:10.779Z,6040.00
2018-05-16T13:09:03.794Z,4780.00
2018-05-16T13:10:03.720Z,4156.00
2018-05-16T13:11:57.138Z,3748.00
2018-05-16T13:12:57.225Z,3696.00
2018-05-16T13:14:51.801Z,3076.00
2018-05-16T13:15:51.083Z,2636.00
2018-05-16T13:17:44.351Z,2124.00
2018-05-16T13:18:44.185Z,1940.00
2018-05-16T13:20:37.032Z,1780.00
2018-05-16T13:21:37.105Z,1796.00
2018-05-16T13:23:29.984Z,1792.00
2018-05-16T13:24:30.047Z,1684.00
2018-05-16T13:26:23.815Z,1620.00
2018-05-16T13:27:23.763Z,1648.00
2018-05-16T13:29:16.841Z,1724.00
2018-05-16T13:30:16.787Z,1820.00
2018-05-16T13:32:09.786Z,2044.00
2018-05-16T13:33:09.870Z,2192.00
2018-05-16T13:35:02.603Z,2568.00
2018-05-16T13:36:02.532Z,2820.00
2018-05-16T13:37:55.651Z,3064.00
2018-05-16T13:38:55.655Z,3060.00
2018-05-16T13:40:48.464Z,2940.00
2018-05-16T13:41:48.413Z,2836.00
2018-05-16T13:43:41.433Z,2628.00
2018-05-16T13:44:41.382Z,2584.00
2018-05-16T13:46:34.503Z,2736.00
2018-05-16T13:47:34.256Z,2880.00
2018-05-16T13:49:27.098Z,2944.00
2018-05-16T13:50:27.064Z,2996.00
2018-05-16T13:52:20.040Z,2832.00
2018-05-16T13:53:19.992Z,2708.00
2018-05-16T13:55:12.956Z,2576.00
2018-05-16T13:56:12.937Z,2604.00
2018-05-16T13:58:05.830Z,2352.00
2018-05-16T13:59:05.726Z,2256.00
2018-05-16T14:00:58.602Z,2108.00
2018-05-16T14:01:58.565Z,1992.00
2018-05-16T14:03:51.465Z,1996.00
2018-05-16T14:04:51.448Z,2044.00
2018-05-16T14:06:44.419Z,2180.00
2018-05-16T14:07:44.376Z,2356.00
2018-05-16T14:09:37.268Z,2380.00
2018-05-16T14:10:37.250Z,2360.00
2018-05-16T14:12:30.266Z,2192.00
2018-05-16T14:13:30.197Z,2156.00
2018-05-16T14:15:23.135Z,2292.00
2018-05-16T14:16:23.110Z,2564.00
2018-05-16T14:18:16.307Z,2972.00
2018-05-16T14:19:16.167Z,3120.00
2018-05-16T14:21:08.986Z,3848.00
2018-05-16T14:22:08.961Z,4048.00
2018-05-16T14:24:01.950Z,3700.00
2018-05-16T14:25:01.890Z,3352.00
2018-05-16T14:26:55.150Z,2648.00
2018-05-16T14:27:54.979Z,2240.00
2018-05-16T14:29:48.012Z,1452.00
2018-05-16T14:30:47.937Z,1204.00
2018-05-16T14:32:40.915Z,1012.00
2018-05-16T14:33:40.892Z,956.00
2018-05-16T14:35:33.737Z,952.00
2018-05-16T14:36:33.664Z,1004.00
2018-05-16T14:38:26.650Z,1112.00
2018-05-16T14:39:26.528Z,1196.00
2018-05-16T14:41:19.512Z,1392.00
2018-05-16T14:42:19.457Z,1512.00
2018-05-16T14:44:12.461Z,1644.00
2018-05-16T14:45:12.408Z,1656.00
2018-05-16T14:47:05.217Z,1472.00
2018-05-16T14:48:05.197Z,1388.00
2018-05-16T14:49:58.188Z,1536.00
2018-05-16T14:50:58.152Z,1764.00
2018-05-16T14:52:51.138Z,2108.00
2018-05-16T14:53:51.110Z,2328.00
2018-05-16T14:55:43.952Z,3204.00
2018-05-16T14:56:43.903Z,3268.00
2018-05-16T14:58:36.733Z,2920.00
2018-05-16T14:59:36.750Z,2872.00
2018-05-16T15:01:29.701Z,3088.00
2018-05-16T15:02:29.646Z,3332.00
2018-05-16T15:04:22.882Z,4276.00
2018-05-16T15:05:22.819Z,4704.00
2018-05-16T15:07:15.878Z,4796.00
2018-05-16T15:08:15.851Z,4664.00
2018-05-16T15:10:08.872Z,4248.00
2018-05-16T15:11:08.805Z,4120.00
2018-05-16T15:13:02.008Z,4180.00
2018-05-16T15:14:01.952Z,4228.00
2018-05-16T15:15:54.938Z,4340.00
2018-05-16T15:16:54.884Z,4124.00
2018-05-16T15:18:47.852Z,3396.00
2018-05-16T15:19:47.824Z,3188.00
2018-05-16T15:21:40.663Z,3208.00
2018-05-16T15:22:40.598Z,3224.00
2018-05-16T15:24:33.628Z,3048.00
2018-05-16T15:25:33.604Z,2840.00
2018-05-16T15:27:26.685Z,2824.00
2018-05-16T15:28:26.590Z,2920.00
2018-05-16T15:30:19.817Z,3156.00
2018-05-16T15:31:19.698Z,3080.00
2018-05-16T15:33:12.502Z,2544.00
2018-05-16T15:34:12.474Z,2364.00
2018-05-16T15:36:05.485Z,1868.00
2018-05-16T15:37:05.489Z,1612.00
2018-05-16T15:38:58.643Z,1456.00
2018-05-16T15:39:58.552Z,1496.00
2018-05-16T15:41:51.592Z,1852.00
2018-05-16T15:42:51.627Z,2112.00
2018-05-16T15:44:44.489Z,2648.00
2018-05-16T15:45:44.463Z,2784.00
2018-05-16T15:47:37.357Z,2660.00
2018-05-16T15:48:37.272Z,2568.00
2018-05-16T15:50:30.264Z,2528.00
2018-05-16T15:51:30.213Z,2324.00
2018-05-16T15:53:23.198Z,2144.00
2018-05-16T15:54:23.178Z,2408.00
2018-05-16T15:56:16.628Z,2960.00
2018-05-16T15:57:16.265Z,3036.00
2018-05-16T15:59:09.255Z,3032.00
2018-05-16T16:00:09.248Z,2996.00
2018-05-16T16:02:02.052Z,2960.00
2018-05-16T16:03:02.003Z,2892.00
2018-05-16T16:04:55.213Z,2928.00
2018-05-16T16:05:55.152Z,3052.00
2018-05-16T16:07:48.171Z,3204.00
2018-05-16T16:08:48.256Z,3236.00
2018-05-16T16:10:40.934Z,3340.00
2018-05-16T16:11:40.942Z,3372.00
2018-05-16T16:13:34.009Z,3356.00
2018-05-16T16:14:33.828Z,3360.00
2018-05-16T16:16:26.855Z,3660.00
2018-05-16T16:17:26.813Z,3736.00
2018-05-16T16:19:19.882Z,3832.00
2018-05-16T16:20:19.816Z,3896.00
2018-05-16T16:22:12.912Z,3904.00
2018-05-16T16:23:12.778Z,3756.00
2018-05-16T16:25:06.696Z,3476.00
2018-05-16T16:26:06.584Z,3308.00
2018-05-16T16:27:59.572Z,3064.00
2018-05-16T16:28:59.646Z,3016.00
2018-05-16T16:30:52.952Z,2892.00
2018-05-16T16:31:52.686Z,2848.00
2018-05-16T16:33:46.591Z,2652.00
2018-05-16T16:34:46.588Z,2540.00
2018-05-16T16:36:39.875Z,2288.00
2018-05-16T16:37:39.821Z,2108.00
2018-05-16T16:39:33.293Z,1760.00
2018-05-16T16:40:32.837Z,1608.00
2018-05-16T16:42:26.220Z,1316.00
2018-05-16T16:43:26.114Z,1248.00
2018-05-16T16:45:19.866Z,1024.00
2018-05-16T16:46:19.822Z,848.00
2018-05-16T16:48:12.893Z,656.00
2018-05-16T16:49:12.858Z,620.00
2018-05-16T16:51:07.035Z,676.00
2018-05-16T16:52:06.819Z,740.00
2018-05-16T16:53:59.910Z,864.00
2018-05-16T16:54:59.826Z,932.00
2018-05-16T16:56:52.813Z,1236.00
2018-05-16T16:57:52.791Z,1424.00
2018-05-16T16:59:45.736Z,1824.00
2018-05-16T17:00:45.607Z,2044.00
2018-05-16T17:02:38.589Z,2280.00
2018-05-16T17:03:38.582Z,2308.00
2018-05-16T17:05:31.589Z,2248.00
2018-05-16T17:06:31.545Z,2144.00
2018-05-16T17:08:24.764Z,1596.00
2018-05-16T17:09:24.735Z,1524.00
2018-05-16T17:11:17.735Z,1364.00
2018-05-16T17:12:17.776Z,1424.00
2018-05-16T17:14:10.915Z,1824.00
2018-05-16T17:15:10.871Z,2008.00
2018-05-16T17:17:04.728Z,1680.00
2018-05-16T17:18:04.655Z,1464.00
2018-05-16T17:19:58.576Z,1020.00
2018-05-16T17:20:57.645Z,984.00
2018-05-16T17:22:50.849Z,832.00
2018-05-16T17:23:50.764Z,704.00
2018-05-16T17:25:43.844Z,576.00
2018-05-16T17:26:43.876Z,576.00
2018-05-16T17:28:36.975Z,608.00
2018-05-16T17:29:36.895Z,592.00
2018-05-16T17:31:29.930Z,560.00
2018-05-16T17:32:29.886Z,576.00
2018-05-16T17:34:22.845Z,668.00
2018-05-16T17:35:22.833Z,704.00
2018-05-16T17:37:15.826Z,660.00
2018-05-16T17:38:15.620Z,512.00
2018-05-16T17:40:08.671Z,264.00
2018-05-16T17:41:08.601Z,196.00
2018-05-16T17:43:01.657Z,104.00
2018-05-16T17:44:01.566Z,76.00
2018-05-16T17:45:54.442Z,36.00
2018-05-16T17:46:54.402Z,28.00
2018-05-16T17:48:47.220Z,16.00